Time;durP1;ratioP1;P1;durP2;ratioP2;P2;SDS_P1;SDS_P2;PMS_P1;PMS_P2;Temp;Humidity;BMP_temperature;BMP_pressure;BME280_temperature;BME280_humidity;BME280_pressure;Samples;Min_cycle;Max_cycle;Signal;HPM_P1;HPM_P2
2024/04/24 00:01:56;;;;;;;;;;;6.20;99.90;;;;;;5453031;26;19928;-72
2024/04/24 00:04:23;;;;;;;;;;;6.20;99.90;;;;;;5452780;26;20029;-73
2024/04/24 00:06:49;;;;;;;;;;;6.30;99.90;;;;;;5453824;26;19929;-73
2024/04/24 00:09:15;;;;;;;;;;;6.30;99.90;;;;;;5453338;26;19935;-72
2024/04/24 00:11:40;;;;;;;;;;;6.30;99.90;;;;;;5453191;26;19996;-72
2024/04/24 00:14:06;;;;;;;;;;;6.30;99.90;;;;;;5453571;26;19933;-73
2024/04/24 00:16:33;;;;;;;;;;;6.40;99.90;;;;;;5453693;26;19940;-72
2024/04/24 00:18:59;;;;;;;;;;;6.30;99.90;;;;;;5453353;26;19928;-73
2024/04/24 00:21:24;;;;;;;;;;;6.20;99.90;;;;;;5452877;26;19940;-71
2024/04/24 00:23:49;;;;;;;;;;;6.30;99.90;;;;;;5453482;26;19929;-73
2024/04/24 00:26:15;;;;;;;;;;;6.30;99.90;;;;;;5453585;26;19936;-73
2024/04/24 00:28:41;;;;;;;;;;;6.30;99.90;;;;;;5453129;26;20295;-72
2024/04/24 00:31:06;;;;;;;;;;;6.30;99.90;;;;;;5453020;26;19928;-73
2024/04/24 00:33:32;;;;;;;;;;;6.20;99.90;;;;;;5453208;26;19929;-73
2024/04/24 00:35:57;;;;;;;;;;;6.20;99.90;;;;;;5453254;26;19935;-73
2024/04/24 00:38:22;;;;;;;;;;;6.20;99.90;;;;;;5453044;26;19928;-72
2024/04/24 00:40:48;;;;;;;;;;;6.20;99.90;;;;;;5453005;26;19936;-73
2024/04/24 00:43:13;;;;;;;;;;;6.20;99.90;;;;;;5453119;26;19936;-72
2024/04/24 00:45:39;;;;;;;;;;;6.20;99.90;;;;;;5453094;26;19939;-73
2024/04/24 00:48:05;;;;;;;;;;;6.10;99.90;;;;;;5452737;26;20006;-72
2024/04/24 00:50:31;;;;;;;;;;;6.10;99.90;;;;;;5453215;26;19972;-71
2024/04/24 00:52:57;;;;;;;;;;;6.10;99.90;;;;;;5452486;26;19997;-73
2024/04/24 00:55:22;;;;;;;;;;;6.10;99.90;;;;;;5453059;26;19929;-73
2024/04/24 00:57:48;;;;;;;;;;;6.10;99.90;;;;;;5453041;26;19939;-73
2024/04/24 01:00:13;;;;;;;;;;;6.10;99.90;;;;;;5452636;26;19936;-73
2024/04/24 01:02:40;;;;;;;;;;;6.10;99.90;;;;;;5452457;26;19928;-71
2024/04/24 01:05:06;;;;;;;;;;;6.10;99.90;;;;;;5452982;26;19940;-72
2024/04/24 01:07:32;;;;;;;;;;;6.10;99.90;;;;;;5452803;26;20268;-72
2024/04/24 01:09:57;;;;;;;;;;;6.10;99.90;;;;;;5452493;26;19929;-73
2024/04/24 01:12:23;;;;;;;;;;;6.00;99.90;;;;;;5452330;26;19932;-71
2024/04/24 01:14:48;;;;;;;;;;;5.90;99.90;;;;;;5452741;26;19947;-73
2024/04/24 01:17:15;;;;;;;;;;;5.90;99.90;;;;;;5452698;26;19928;-72
2024/04/24 01:19:48;;;;;;;;;;;5.90;99.90;;;;;;5452768;26;20358;-72
2024/04/24 01:22:31;;;;;;;;;;;5.80;99.90;;;;;;5451874;26;19932;-73
2024/04/24 01:25:00;;;;;;;;;;;5.90;99.90;;;;;;5452717;26;19929;-72
2024/04/24 01:27:25;;;;;;;;;;;5.80;99.90;;;;;;5452614;26;20360;-71
2024/04/24 01:29:51;;;;;;;;;;;5.80;99.90;;;;;;5452109;26;19929;-73
2024/04/24 01:32:16;;;;;;;;;;;5.70;99.90;;;;;;5451975;26;20355;-73
2024/04/24 01:34:41;;;;;;;;;;;5.70;99.90;;;;;;5452255;26;19928;-71
2024/04/24 01:37:07;;;;;;;;;;;5.70;99.90;;;;;;5450841;26;20267;-73
2024/04/24 01:39:32;;;;;;;;;;;5.60;99.90;;;;;;5452491;26;19932;-72
2024/04/24 01:41:58;;;;;;;;;;;5.70;99.90;;;;;;5451853;26;19932;-72
2024/04/24 01:44:23;;;;;;;;;;;5.70;99.90;;;;;;5452355;26;19997;-73
2024/04/24 01:46:49;;;;;;;;;;;5.60;99.90;;;;;;5452185;26;19929;-73
2024/04/24 01:49:14;;;;;;;;;;;5.60;99.90;;;;;;5451953;26;20443;-73
2024/04/24 01:51:40;;;;;;;;;;;5.60;99.90;;;;;;5451933;26;19929;-71
2024/04/24 01:54:05;;;;;;;;;;;5.60;99.90;;;;;;5450390;26;19932;-72
2024/04/24 01:56:30;;;;;;;;;;;5.60;99.90;;;;;;5452272;26;20386;-72
2024/04/24 01:58:56;;;;;;;;;;;5.60;99.90;;;;;;5452034;26;19936;-72
2024/04/24 02:01:21;;;;;;;;;;;5.60;99.90;;;;;;5449662;26;19929;-72
2024/04/24 02:03:47;;;;;;;;;;;5.70;99.90;;;;;;5451914;26;19977;-72
2024/04/24 02:06:12;;;;;;;;;;;5.70;99.90;;;;;;5451989;26;19933;-70
2024/04/24 02:08:38;;;;;;;;;;;5.70;99.90;;;;;;5451910;26;19949;-69
2024/04/24 02:11:03;;;;;;;;;;;5.70;99.90;;;;;;5452517;26;19994;-69
2024/04/24 02:13:29;;;;;;;;;;;5.60;99.90;;;;;;5452519;26;19928;-69
2024/04/24 02:15:54;;;;;;;;;;;5.70;99.90;;;;;;5451738;26;20436;-71
2024/04/24 02:18:20;;;;;;;;;;;5.70;99.90;;;;;;5451634;26;19973;-70
2024/04/24 02:20:45;;;;;;;;;;;5.70;99.90;;;;;;5451719;26;19960;-69
2024/04/24 02:23:13;;;;;;;;;;;5.70;99.90;;;;;;5451166;26;19939;-70
2024/04/24 02:25:38;;;;;;;;;;;5.70;99.90;;;;;;5451820;26;20494;-72
2024/04/24 02:28:07;;;;;;;;;;;5.70;99.90;;;;;;5455226;26;19940;-69
2024/04/24 02:30:33;;;;;;;;;;;5.70;99.90;;;;;;5454974;26;19929;-70
2024/04/24 02:32:58;;;;;;;;;;;5.60;99.90;;;;;;5454549;26;19996;-70
2024/04/24 02:35:24;;;;;;;;;;;5.60;99.90;;;;;;5455056;26;19928;-69
2024/04/24 02:37:50;;;;;;;;;;;5.70;99.90;;;;;;5455095;26;20368;-69
2024/04/24 02:40:15;;;;;;;;;;;5.70;99.90;;;;;;5454880;26;19978;-69
2024/04/24 02:42:40;;;;;;;;;;;5.70;99.90;;;;;;5454316;26;19996;-72
2024/04/24 02:45:06;;;;;;;;;;;5.70;99.90;;;;;;5454888;26;20430;-69
2024/04/24 02:47:32;;;;;;;;;;;5.70;99.90;;;;;;5454795;26;19936;-69
2024/04/24 02:49:57;;;;;;;;;;;5.70;99.90;;;;;;5454549;26;19940;-70
2024/04/24 02:52:23;;;;;;;;;;;5.70;99.90;;;;;;5454488;26;19929;-69
2024/04/24 02:54:48;;;;;;;;;;;5.60;99.90;;;;;;5454766;26;20647;-69
2024/04/24 02:57:13;;;;;;;;;;;5.70;99.90;;;;;;5454731;26;19998;-69
2024/04/24 02:59:42;;;;;;;;;;;5.70;99.90;;;;;;5454647;26;20288;-71
2024/04/24 03:02:07;;;;;;;;;;;5.70;99.90;;;;;;5453920;26;20364;-72
2024/04/24 03:04:33;;;;;;;;;;;5.70;99.90;;;;;;5454749;26;19935;-69
2024/04/24 03:06:58;;;;;;;;;;;5.70;99.90;;;;;;5454719;26;19940;-69
2024/04/24 03:09:24;;;;;;;;;;;5.70;99.90;;;;;;5454246;26;19929;-69
2024/04/24 03:11:49;;;;;;;;;;;5.70;99.90;;;;;;5454055;26;19928;-72
2024/04/24 03:14:21;;;;;;;;;;;5.60;99.90;;;;;;5454420;26;19928;-69
2024/04/24 03:16:46;;;;;;;;;;;5.60;99.90;;;;;;5454691;26;19929;-69
2024/04/24 03:19:12;;;;;;;;;;;5.60;99.90;;;;;;5454440;26;20374;-70
2024/04/24 03:21:37;;;;;;;;;;;5.60;99.90;;;;;;5453846;26;19928;-72
2024/04/24 03:24:03;;;;;;;;;;;5.60;99.90;;;;;;5454442;26;19956;-69
2024/04/24 03:26:28;;;;;;;;;;;5.60;99.90;;;;;;5454505;26;20256;-69
2024/04/24 03:28:54;;;;;;;;;;;5.50;99.90;;;;;;5454268;26;19997;-69
2024/04/24 03:31:20;;;;;;;;;;;5.50;99.90;;;;;;5479230;21;19929;-70
2024/04/24 03:33:45;;;;;;;;;;;5.50;99.90;;;;;;5418368;26;19936;-71
2024/04/24 03:36:11;;;;;;;;;;;5.50;99.90;;;;;;5418002;26;19997;-70
2024/04/24 03:38:36;;;;;;;;;;;5.50;99.90;;;;;;5416955;26;19957;-70
2024/04/24 03:41:02;;;;;;;;;;;5.40;99.90;;;;;;5417436;26;19929;-71
2024/04/24 03:43:29;;;;;;;;;;;5.50;99.90;;;;;;5417909;26;20445;-70
2024/04/24 03:45:54;;;;;;;;;;;5.50;99.90;;;;;;5418094;26;20368;-70
2024/04/24 03:48:20;;;;;;;;;;;5.40;99.90;;;;;;5418103;26;19958;-72
2024/04/24 03:50:45;;;;;;;;;;;5.40;99.90;;;;;;5417701;26;19936;-70
2024/04/24 03:53:11;;;;;;;;;;;5.40;99.90;;;;;;5417631;26;20267;-71
2024/04/24 03:55:36;;;;;;;;;;;5.40;99.90;;;;;;5418003;26;19933;-70
2024/04/24 03:58:02;;;;;;;;;;;5.30;99.90;;;;;;5417814;26;19933;-70
2024/04/24 04:00:27;;;;;;;;;;;5.40;99.30;;;;;;5417766;26;19929;-70
2024/04/24 04:02:53;;;;;;;;;;;5.30;96.40;;;;;;5417229;26;19929;-71
2024/04/24 04:05:18;;;;;;;;;;;5.30;94.20;;;;;;5417922;26;19929;-71
2024/04/24 04:07:44;;;;;;;;;;;5.20;91.40;;;;;;5416045;26;19936;-70
2024/04/24 04:10:09;;;;;;;;;;;5.20;92.70;;;;;;5417562;26;19936;-70
2024/04/24 04:12:35;;;;;;;;;;;5.20;94.10;;;;;;5417203;26;19933;-70
2024/04/24 04:15:00;;;;;;;;;;;5.20;94.60;;;;;;5417547;26;19941;-71
2024/04/24 04:17:25;;;;;;;;;;;5.10;95.50;;;;;;5417699;26;19940;-70
2024/04/24 04:19:51;;;;;;;;;;;5.10;96.70;;;;;;5417645;26;19932;-70
2024/04/24 04:22:16;;;;;;;;;;;5.10;98.30;;;;;;5416808;26;19942;-71
2024/04/24 04:24:42;;;;;;;;;;;5.10;98.40;;;;;;5417659;26;19936;-70
2024/04/24 04:27:07;;;;;;;;;;;5.10;99.90;;;;;;5417574;26;19955;-69
2024/04/24 04:29:33;;;;;;;;;;;5.10;99.90;;;;;;5417511;26;19996;-71
2024/04/24 04:31:59;;;;;;;;;;;5.10;99.90;;;;;;5416642;26;19933;-70
2024/04/24 04:34:24;;;;;;;;;;;5.10;99.90;;;;;;5415635;26;19937;-70
2024/04/24 04:36:49;;;;;;;;;;;5.00;99.90;;;;;;5417450;26;19933;-71
2024/04/24 04:39:15;;;;;;;;;;;5.10;99.90;;;;;;5417323;26;19940;-71
2024/04/24 04:41:40;;;;;;;;;;;5.10;99.90;;;;;;5417095;26;19933;-70
2024/04/24 04:44:06;;;;;;;;;;;5.20;99.90;;;;;;5417123;26;19932;-70
2024/04/24 04:46:31;;;;;;;;;;;5.10;99.90;;;;;;5417129;26;19929;-71
2024/04/24 04:48:57;;;;;;;;;;;5.20;99.90;;;;;;5416723;26;19939;-71
2024/04/24 04:51:22;;;;;;;;;;;5.20;99.90;;;;;;5416468;26;19941;-70
2024/04/24 04:53:48;;;;;;;;;;;5.30;99.90;;;;;;5417022;26;19935;-71
2024/04/24 04:56:13;;;;;;;;;;;5.30;99.90;;;;;;5417092;26;19935;-71
2024/04/24 04:58:39;;;;;;;;;;;5.30;99.90;;;;;;5417127;26;20002;-71
2024/04/24 05:01:04;;;;;;;;;;;5.40;99.90;;;;;;5416487;26;19929;-70
2024/04/24 05:03:30;;;;;;;;;;;5.30;99.90;;;;;;5416810;26;19936;-71
2024/04/24 05:05:56;;;;;;;;;;;5.20;99.90;;;;;;5417006;26;19929;-71
2024/04/24 05:08:21;;;;;;;;;;;5.30;99.90;;;;;;5416903;26;20002;-71
2024/04/24 05:10:47;;;;;;;;;;;5.30;99.90;;;;;;5416597;26;19948;-70
2024/04/24 05:13:12;;;;;;;;;;;5.20;99.90;;;;;;5416554;26;19939;-71
2024/04/24 05:15:38;;;;;;;;;;;5.20;99.90;;;;;;5416805;26;19937;-71
2024/04/24 05:18:04;;;;;;;;;;;5.20;99.90;;;;;;5416765;26;20375;-71
2024/04/24 05:20:30;;;;;;;;;;;5.20;99.90;;;;;;5416769;26;19929;-71
2024/04/24 05:23:00;;;;;;;;;;;5.20;99.90;;;;;;5416228;26;19935;-70
2024/04/24 05:25:28;;;;;;;;;;;5.20;99.90;;;;;;5416587;26;19957;-70
2024/04/24 05:30:38;;;;;;;;;;;5.30;99.90;;;;;;5416497;26;20322;-71
2024/04/24 05:33:03;;;;;;;;;;;5.30;99.90;;;;;;5415993;26;19937;-71
2024/04/24 05:35:29;;;;;;;;;;;5.20;99.90;;;;;;5416590;26;19955;-69
2024/04/24 05:37:54;;;;;;;;;;;5.20;99.90;;;;;;5416540;26;19937;-68
2024/04/24 05:40:20;;;;;;;;;;;5.20;99.90;;;;;;5415640;26;19936;-69
2024/04/24 05:42:45;;;;;;;;;;;5.20;99.90;;;;;;5415071;26;19933;-69
2024/04/24 05:45:11;;;;;;;;;;;5.20;99.90;;;;;;5416052;26;19939;-69
2024/04/24 05:47:36;;;;;;;;;;;5.30;99.90;;;;;;5416413;26;19997;-69
2024/04/24 05:50:02;;;;;;;;;;;5.30;99.90;;;;;;5416132;26;19956;-70
2024/04/24 05:52:27;;;;;;;;;;;5.30;99.90;;;;;;5400477;26;19964;-69
2024/04/24 05:54:53;;;;;;;;;;;5.30;99.90;;;;;;5380776;26;19938;-68
2024/04/24 05:57:22;;;;;;;;;;;5.20;99.90;;;;;;5380617;26;19941;-69
2024/04/24 05:59:51;;;;;;;;;;;5.20;99.90;;;;;;5380682;26;19941;-69
2024/04/24 06:02:16;;;;;;;;;;;5.30;99.90;;;;;;5379112;26;19930;-68
2024/04/24 06:04:42;;;;;;;;;;;5.30;99.90;;;;;;5380361;26;19999;-69
2024/04/24 06:07:07;;;;;;;;;;;5.40;99.90;;;;;;5380686;26;20376;-69
2024/04/24 06:09:33;;;;;;;;;;;5.40;99.90;;;;;;5380272;26;19930;-69
2024/04/24 06:11:59;;;;;;;;;;;5.40;99.90;;;;;;5379825;26;19940;-69
2024/04/24 06:14:25;;;;;;;;;;;5.50;99.90;;;;;;5380565;26;19936;-69
2024/04/24 06:16:50;;;;;;;;;;;5.50;99.20;;;;;;5380553;26;20020;-68
2024/04/24 06:19:16;;;;;;;;;;;5.50;99.70;;;;;;5380459;26;19936;-69
2024/04/24 06:21:41;;;;;;;;;;;5.50;93.30;;;;;;5379820;26;20265;-69
2024/04/24 06:24:07;;;;;;;;;;;5.50;94.00;;;;;;5380140;26;19929;-69
2024/04/24 06:26:32;;;;;;;;;;;5.60;96.30;;;;;;5380206;26;19934;-69
2024/04/24 06:28:58;;;;;;;;;;;5.70;90.90;;;;;;5380275;26;19999;-69
2024/04/24 06:31:23;;;;;;;;;;;5.70;90.50;;;;;;5379449;26;19998;-69
2024/04/24 06:33:49;;;;;;;;;;;5.80;91.90;;;;;;5380109;26;19957;-70
2024/04/24 06:36:14;;;;;;;;;;;5.80;84.10;;;;;;5380391;26;19940;-68
2024/04/24 06:38:39;;;;;;;;;;;5.90;75.30;;;;;;5380128;26;19979;-69
2024/04/24 06:41:05;;;;;;;;;;;5.90;83.90;;;;;;5379587;26;19929;-69
2024/04/24 06:43:31;;;;;;;;;;;5.90;87.70;;;;;;5379871;26;19936;-69
2024/04/24 06:45:56;;;;;;;;;;;6.00;73.80;;;;;;5379946;26;19981;-68
2024/04/24 06:48:22;;;;;;;;;;;5.90;53.60;;;;;;5378250;26;19941;-69
2024/04/24 06:50:47;;;;;;;;;;;6.00;63.10;;;;;;5379530;26;20000;-69
2024/04/24 06:53:13;;;;;;;;;;;6.10;62.80;;;;;;5379130;26;19962;-68
2024/04/24 06:55:43;;;;;;;;;;;6.20;53.80;;;;;;5379764;26;19962;-69
2024/04/24 06:58:09;;;;;;;;;;;6.20;44.00;;;;;;5379823;26;19930;-68
2024/04/24 07:00:35;;;;;;;;;;;6.10;41.20;;;;;;5379699;26;19937;-69
2024/04/24 07:03:00;;;;;;;;;;;6.00;46.20;;;;;;5379343;26;20269;-69
2024/04/24 07:05:26;;;;;;;;;;;6.10;61.10;;;;;;5379398;26;19999;-69
2024/04/24 07:07:51;;;;;;;;;;;6.10;67.30;;;;;;5379363;26;19936;-70
2024/04/24 07:10:17;;;;;;;;;;;6.30;72.60;;;;;;5379412;26;19953;-69
2024/04/24 07:12:42;;;;;;;;;;;6.50;69.00;;;;;;5380746;26;19962;-69
2024/04/24 07:15:08;;;;;;;;;;;6.70;59.90;;;;;;5383060;26;19941;-69
2024/04/24 07:17:33;;;;;;;;;;;6.70;48.90;;;;;;5383052;26;19929;-69
2024/04/24 07:19:58;;;;;;;;;;;6.70;51.90;;;;;;5381389;26;19936;-69
2024/04/24 07:22:24;;;;;;;;;;;6.80;43.00;;;;;;5382309;26;20369;-69
2024/04/24 07:24:50;;;;;;;;;;;6.90;41.70;;;;;;5382603;26;19961;-68
2024/04/24 07:27:15;;;;;;;;;;;6.90;18.50;;;;;;5382916;26;19934;-68
2024/04/24 07:29:41;;;;;;;;;;;6.90;31.90;;;;;;5382807;26;19999;-69
2024/04/24 07:32:06;;;;;;;;;;;7.00;36.60;;;;;;5380110;26;19929;-69
2024/04/24 07:34:32;;;;;;;;;;;6.90;13.00;;;;;;5382774;26;19930;-69
2024/04/24 07:36:57;;;;;;;;;;;7.00;27.30;;;;;;5382762;26;20714;-69
2024/04/24 07:39:22;;;;;;;;;;;7.10;29.00;;;;;;5382609;26;19940;-69
2024/04/24 07:41:48;;;;;;;;;;;7.00;14.70;;;;;;5380468;26;20369;-69
2024/04/24 07:44:13;;;;;;;;;;;7.00;21.50;;;;;;5382572;26;20007;-69
2024/04/24 07:46:39;;;;;;;;;;;7.00;22.30;;;;;;5382690;26;19933;-69
2024/04/24 07:49:04;;;;;;;;;;;7.00;16.00;;;;;;5380833;26;19937;-69
2024/04/24 07:51:30;;;;;;;;;;;7.00;10.70;;;;;;5381724;26;20335;-69
2024/04/24 07:53:55;;;;;;;;;;;7.00;21.30;;;;;;5382211;26;19930;-69
2024/04/24 07:56:21;;;;;;;;;;;7.20;11.70;;;;;;5382530;26;19930;-69
2024/04/24 07:58:46;;;;;;;;;;;7.40;17.60;;;;;;5382463;26;19941;-70
2024/04/24 08:01:12;;;;;;;;;;;7.20;4.70;;;;;;5381954;26;19930;-69
2024/04/24 08:03:37;;;;;;;;;;;7.20;13.40;;;;;;5382479;26;19941;-69
2024/04/24 08:06:04;;;;;;;;;;;7.20;12.90;;;;;;5382057;26;19930;-69
2024/04/24 08:08:30;;;;;;;;;;;7.30;10.50;;;;;;5382082;26;19999;-69
2024/04/24 08:10:55;;;;;;;;;;;7.20;10.00;;;;;;5382339;26;20452;-69
2024/04/24 08:13:21;;;;;;;;;;;7.60;10.20;;;;;;5381448;26;19930;-69
2024/04/24 08:15:47;;;;;;;;;;;7.40;4.40;;;;;;5382182;26;20335;-70
2024/04/24 08:18:12;;;;;;;;;;;7.40;3.20;;;;;;5382300;26;19940;-69
2024/04/24 08:20:38;;;;;;;;;;;7.50;2.00;;;;;;5381991;26;20003;-69
2024/04/24 08:23:03;;;;;;;;;;;7.60;1.50;;;;;;5381342;26;19936;-69
2024/04/24 08:25:29;;;;;;;;;;;7.60;1.00;;;;;;5381116;26;19929;-69
2024/04/24 08:27:54;;;;;;;;;;;7.50;3.70;;;;;;5380316;26;19941;-69
2024/04/24 08:30:20;;;;;;;;;;;7.30;1.00;;;;;;5381695;26;19929;-69
2024/04/24 08:32:45;;;;;;;;;;;7.30;1.00;;;;;;5381211;26;20293;-69
2024/04/24 08:35:11;;;;;;;;;;;7.30;1.00;;;;;;5381974;26;19930;-68
2024/04/24 08:37:36;;;;;;;;;;;7.10;1.00;;;;;;5381685;26;19933;-69
2024/04/24 08:40:02;;;;;;;;;;;7.00;1.00;;;;;;5382252;26;20254;-69
2024/04/24 08:42:28;;;;;;;;;;;7.00;7.00;;;;;;5381342;26;19998;-69
2024/04/24 08:44:54;;;;;;;;;;;7.00;6.70;;;;;;5381701;26;19937;-70
2024/04/24 08:47:20;;;;;;;;;;;7.10;7.20;;;;;;5381876;26;20273;-69
2024/04/24 08:49:47;;;;;;;;;;;7.20;8.10;;;;;;5381719;26;19937;-69
2024/04/24 08:52:14;;;;;;;;;;;7.30;1.00;;;;;;5380782;26;19958;-68
2024/04/24 08:54:41;;;;;;;;;;;7.30;1.10;;;;;;5381447;26;19929;-69
2024/04/24 08:57:08;;;;;;;;;;;7.40;6.10;;;;;;5381799;26;19930;-69
2024/04/24 08:59:40;;;;;;;;;;;7.30;1.00;;;;;;5381694;26;20366;-69
2024/04/24 09:02:06;;;;;;;;;;;7.30;5.00;;;;;;5381203;26;19936;-70
2024/04/24 09:04:33;;;;;;;;;;;7.10;2.80;;;;;;5381833;26;19936;-69
2024/04/24 09:06:59;;;;;;;;;;;7.00;13.10;;;;;;5396219;26;19933;-68
2024/04/24 09:09:25;;;;;;;;;;;7.00;6.10;;;;;;5402669;26;19937;-68
2024/04/24 09:11:53;;;;;;;;;;;7.20;4.20;;;;;;5384463;26;19936;-68
2024/04/24 09:14:19;;;;;;;;;;;7.70;10.90;;;;;;5381148;26;19930;-68
2024/04/24 09:16:45;;;;;;;;;;;8.10;1.00;;;;;;5380824;26;20354;-70
2024/04/24 09:19:11;;;;;;;;;;;8.40;1.00;;;;;;5381087;26;19929;-70
2024/04/24 09:21:36;;;;;;;;;;;8.10;1.00;;;;;;5380546;26;19995;-69
2024/04/24 09:24:02;;;;;;;;;;;8.20;1.00;;;;;;5380808;26;19930;-69
2024/04/24 09:26:27;;;;;;;;;;;8.20;1.00;;;;;;5380777;26;19933;-69
2024/04/24 09:28:53;;;;;;;;;;;8.20;1.00;;;;;;5381313;26;19933;-69
2024/04/24 09:31:19;;;;;;;;;;;8.30;1.00;;;;;;5380025;26;19936;-69
2024/04/24 09:33:45;;;;;;;;;;;8.60;1.00;;;;;;5380394;26;19930;-69
2024/04/24 09:36:10;;;;;;;;;;;8.90;1.00;;;;;;5380854;26;20581;-69
2024/04/24 09:38:36;;;;;;;;;;;8.80;1.00;;;;;;5380861;26;19934;-68
2024/04/24 09:41:02;;;;;;;;;;;8.90;1.00;;;;;;5380341;26;20418;-67
2024/04/24 09:43:28;;;;;;;;;;;9.10;1.00;;;;;;5380846;26;19934;-70
2024/04/24 09:45:54;;;;;;;;;;;9.20;1.00;;;;;;5380481;26;20368;-70
2024/04/24 09:48:20;;;;;;;;;;;9.40;1.00;;;;;;5380555;26;19936;-70
2024/04/24 09:50:47;;;;;;;;;;;9.50;1.00;;;;;;5380634;26;20268;-70
2024/04/24 09:53:17;;;;;;;;;;;9.60;1.00;;;;;;5379780;26;19929;-71
2024/04/24 09:55:44;;;;;;;;;;;9.60;1.00;;;;;;5380611;26;19933;-69
2024/04/24 09:58:10;;;;;;;;;;;9.30;1.00;;;;;;5380560;26;19942;-69
2024/04/24 10:00:36;;;;;;;;;;;8.80;1.00;;;;;;5389600;26;20335;-69
2024/04/24 10:03:05;;;;;;;;;;;8.60;1.00;;;;;;5379776;26;19937;-70
2024/04/24 10:05:30;;;;;;;;;;;8.50;1.00;;;;;;5380384;26;19958;-69
2024/04/24 10:08:00;;;;;;;;;;;8.70;1.00;;;;;;5379748;26;19929;-70
2024/04/24 10:10:47;;;;;;;;;;;9.10;1.00;;;;;;5380001;26;20365;-70
2024/04/24 10:13:13;;;;;;;;;;;9.40;1.00;;;;;;5379727;26;19936;-70
2024/04/24 10:15:49;;;;;;;;;;;9.80;1.00;;;;;;5379773;26;19929;-70
2024/04/24 10:18:15;;;;;;;;;;;9.80;1.00;;;;;;5380113;26;19944;-69
2024/04/24 10:20:43;;;;;;;;;;;9.70;1.00;;;;;;5379932;26;19929;-70
2024/04/24 10:23:09;;;;;;;;;;;9.60;1.00;;;;;;5379669;26;19930;-70
2024/04/24 10:25:35;;;;;;;;;;;9.10;1.00;;;;;;5380035;26;19929;-70
2024/04/24 10:28:02;;;;;;;;;;;9.20;1.00;;;;;;5379673;26;19936;-71
2024/04/24 10:30:29;;;;;;;;;;;9.50;1.00;;;;;;5379605;26;19957;-72
2024/04/24 10:32:54;;;;;;;;;;;9.60;1.00;;;;;;5379718;26;19942;-72
2024/04/24 10:35:23;;;;;;;;;;;9.70;1.00;;;;;;5379483;26;19937;-72
2024/04/24 10:37:55;;;;;;;;;;;9.60;1.00;;;;;;5379734;26;19982;-71
2024/04/24 10:40:23;;;;;;;;;;;9.60;1.00;;;;;;5379903;26;19937;-70
2024/04/24 10:42:49;;;;;;;;;;;9.80;1.00;;;;;;5379253;26;19930;-70
2024/04/24 10:45:16;;;;;;;;;;;9.90;1.00;;;;;;5379714;26;19958;-70
2024/04/24 10:47:41;;;;;;;;;;;9.90;1.00;;;;;;5381538;26;19936;-70
2024/04/24 10:50:12;;;;;;;;;;;9.90;1.00;;;;;;5382930;26;19929;-70
2024/04/24 10:52:44;;;;;;;;;;;9.90;1.00;;;;;;5382356;26;20002;-73
2024/04/24 10:55:14;;;;;;;;;;;9.80;1.00;;;;;;5382993;26;19980;-70
2024/04/24 10:57:44;;;;;;;;;;;9.80;1.00;;;;;;5382614;26;19999;-70
2024/04/24 11:00:11;;;;;;;;;;;9.70;1.00;;;;;;5382849;26;19930;-70
2024/04/24 11:02:38;;;;;;;;;;;9.60;1.00;;;;;;5382699;26;20368;-70
2024/04/24 11:05:03;;;;;;;;;;;9.60;1.00;;;;;;5382803;26;20033;-70
2024/04/24 11:07:29;;;;;;;;;;;9.70;1.00;;;;;;5382457;26;19937;-70
2024/04/24 11:09:54;;;;;;;;;;;9.50;1.00;;;;;;5382802;26;19999;-71
2024/04/24 11:12:21;;;;;;;;;;;9.50;1.00;;;;;;5381861;26;19929;-70
2024/04/24 11:14:49;;;;;;;;;;;9.40;1.00;;;;;;5382442;26;19957;-71
2024/04/24 11:17:15;;;;;;;;;;;9.20;1.00;;;;;;5382425;26;19933;-70
2024/04/24 11:19:40;;;;;;;;;;;9.00;1.00;;;;;;5382560;26;19936;-71
2024/04/24 11:22:06;;;;;;;;;;;9.10;1.00;;;;;;5382181;26;19930;-71
2024/04/24 11:24:32;;;;;;;;;;;9.20;1.00;;;;;;5382543;26;19929;-70
2024/04/24 11:26:58;;;;;;;;;;;9.20;1.00;;;;;;5382246;26;19938;-70
2024/04/24 11:29:26;;;;;;;;;;;9.20;1.00;;;;;;5383173;26;19937;-70
2024/04/24 11:31:53;;;;;;;;;;;9.10;1.00;;;;;;5382025;26;19930;-70
2024/04/24 11:34:19;;;;;;;;;;;9.10;1.00;;;;;;5381996;26;19945;-70
2024/04/24 11:36:45;;;;;;;;;;;9.10;1.00;;;;;;5382596;26;20379;-70
2024/04/24 11:39:14;;;;;;;;;;;9.10;1.00;;;;;;5382147;26;20376;-72
2024/04/24 11:41:40;;;;;;;;;;;9.20;1.00;;;;;;5381946;26;19981;-70
2024/04/24 11:44:06;;;;;;;;;;;9.10;1.00;;;;;;5382572;26;19937;-70
2024/04/24 11:46:32;;;;;;;;;;;8.50;1.00;;;;;;5381967;26;19930;-71
2024/04/24 11:49:00;;;;;;;;;;;7.70;12.00;;;;;;5382356;26;19958;-71
2024/04/24 11:51:26;;;;;;;;;;;7.20;52.50;;;;;;5381869;26;19937;-71
2024/04/24 11:53:52;;;;;;;;;;;6.80;65.70;;;;;;5381633;26;19936;-71
2024/04/24 11:56:20;;;;;;;;;;;6.60;91.70;;;;;;5382362;26;19930;-72
2024/04/24 11:58:46;;;;;;;;;;;6.40;99.60;;;;;;5381113;26;20358;-72
2024/04/24 12:01:11;;;;;;;;;;;6.40;99.90;;;;;;5381353;26;19998;-71
2024/04/24 12:03:37;;;;;;;;;;;6.80;99.90;;;;;;5382283;26;20365;-71
2024/04/24 12:06:03;;;;;;;;;;;7.40;99.90;;;;;;5382171;26;19936;-71
2024/04/24 12:08:29;;;;;;;;;;;8.40;99.90;;;;;;5381518;26;19929;-70
2024/04/24 12:10:58;;;;;;;;;;;9.30;74.80;;;;;;5381995;26;20269;-71
2024/04/24 12:13:33;;;;;;;;;;;10.60;33.50;;;;;;5381342;26;19942;-71
2024/04/24 12:15:59;;;;;;;;;;;11.50;1.00;;;;;;5381342;26;20328;-70
2024/04/24 12:18:25;;;;;;;;;;;11.70;1.00;;;;;;5382205;26;19940;-70
2024/04/24 12:20:51;;;;;;;;;;;11.40;1.00;;;;;;5382162;26;19941;-70
2024/04/24 12:23:17;;;;;;;;;;;11.40;1.00;;;;;;5381216;26;20012;-70
2024/04/24 12:25:43;;;;;;;;;;;11.40;1.00;;;;;;5382009;26;19933;-71
2024/04/24 12:28:08;;;;;;;;;;;11.10;1.00;;;;;;5382007;26;19938;-71
2024/04/24 12:30:34;;;;;;;;;;;10.30;1.00;;;;;;5381091;26;20308;-71
2024/04/24 12:32:59;;;;;;;;;;;8.80;1.00;;;;;;5381064;26;19937;-71
2024/04/24 12:35:25;;;;;;;;;;;8.20;1.00;;;;;;5381845;26;20006;-70
2024/04/24 12:37:50;;;;;;;;;;;7.80;11.00;;;;;;5381282;26;20392;-71
2024/04/24 12:40:16;;;;;;;;;;;7.70;18.20;;;;;;5381788;26;19936;-70
2024/04/24 12:42:41;;;;;;;;;;;7.90;15.60;;;;;;5381338;26;19954;-70
2024/04/24 12:45:07;;;;;;;;;;;7.90;15.30;;;;;;5381055;26;19936;-70
2024/04/24 12:47:33;;;;;;;;;;;8.50;31.30;;;;;;5381313;26;20266;-70
2024/04/24 12:49:58;;;;;;;;;;;9.40;21.20;;;;;;5381735;26;19930;-72
2024/04/24 12:52:24;;;;;;;;;;;10.90;1.00;;;;;;5380578;26;20373;-70
2024/04/24 12:54:50;;;;;;;;;;;12.10;1.00;;;;;;5381484;26;19941;-70
2024/04/24 12:57:15;;;;;;;;;;;13.30;1.00;;;;;;5381518;26;19929;-70
2024/04/24 12:59:41;;;;;;;;;;;13.70;1.00;;;;;;5380803;26;19941;-70
2024/04/24 13:02:06;;;;;;;;;;;13.50;1.00;;;;;;5380932;26;20319;-73
2024/04/24 13:04:32;;;;;;;;;;;12.50;1.00;;;;;;5381630;26;20384;-73
2024/04/24 13:06:57;;;;;;;;;;;10.70;1.00;;;;;;5380982;26;19937;-72
2024/04/24 13:09:23;;;;;;;;;;;9.60;1.00;;;;;;5380807;26;19998;-72
2024/04/24 13:11:49;;;;;;;;;;;8.80;16.70;;;;;;5380691;26;19969;-73
2024/04/24 13:14:14;;;;;;;;;;;8.50;31.10;;;;;;5380511;26;19979;-71
2024/04/24 13:16:40;;;;;;;;;;;8.30;42.70;;;;;;5380910;26;19929;-72
2024/04/24 13:19:05;;;;;;;;;;;8.20;47.60;;;;;;5380990;26;20005;-71
2024/04/24 13:21:31;;;;;;;;;;;8.20;64.20;;;;;;5380347;26;19930;-72
2024/04/24 13:23:56;;;;;;;;;;;8.60;60.80;;;;;;5381329;26;20373;-71
2024/04/24 13:26:22;;;;;;;;;;;9.10;33.70;;;;;;5380859;26;19930;-70
2024/04/24 13:28:47;;;;;;;;;;;9.50;25.90;;;;;;5380524;26;20283;-70
2024/04/24 13:31:13;;;;;;;;;;;10.00;7.20;;;;;;5380409;26;19937;-71
2024/04/24 13:33:39;;;;;;;;;;;10.50;4.00;;;;;;5380502;26;19940;-70
2024/04/24 13:36:05;;;;;;;;;;;10.80;1.00;;;;;;5380579;26;20094;-70
2024/04/24 13:38:30;;;;;;;;;;;10.60;1.00;;;;;;5381014;26;19934;-70
2024/04/24 13:41:02;;;;;;;;;;;10.40;1.00;;;;;;5380611;26;19934;-70
2024/04/24 13:43:28;;;;;;;;;;;10.10;1.00;;;;;;5380674;26;20258;-69
2024/04/24 13:45:53;;;;;;;;;;;9.90;1.00;;;;;;5380565;26;19936;-72
2024/04/24 13:48:19;;;;;;;;;;;10.20;1.00;;;;;;5380052;26;20003;-72
2024/04/24 13:50:44;;;;;;;;;;;10.50;1.00;;;;;;5380334;26;20380;-71
2024/04/24 13:53:10;;;;;;;;;;;10.40;1.00;;;;;;5380377;26;20381;-73
2024/04/24 13:55:35;;;;;;;;;;;9.80;1.00;;;;;;5379909;26;19978;-73
2024/04/24 13:58:01;;;;;;;;;;;9.10;1.00;;;;;;5379101;26;19933;-71
2024/04/24 14:00:26;;;;;;;;;;;8.70;4.60;;;;;;5380381;26;19937;-71
2024/04/24 14:02:52;;;;;;;;;;;8.60;10.90;;;;;;5379955;26;19984;-71
2024/04/24 14:05:18;;;;;;;;;;;8.30;16.00;;;;;;5379426;26;19941;-71
2024/04/24 14:07:43;;;;;;;;;;;8.10;24.00;;;;;;5380163;26;20270;-68
2024/04/24 14:10:09;;;;;;;;;;;8.00;19.20;;;;;;5379893;26;19938;-70
2024/04/24 14:12:34;;;;;;;;;;;8.10;25.40;;;;;;5384505;26;20296;-71
2024/04/24 14:14:59;;;;;;;;;;;8.10;23.70;;;;;;5405067;26;19938;-69
2024/04/24 14:17:26;;;;;;;;;;;8.20;24.80;;;;;;5410319;26;19928;-67
2024/04/24 14:19:54;;;;;;;;;;;8.20;22.40;;;;;;5414726;26;20019;-70
2024/04/24 14:22:20;;;;;;;;;;;8.20;13.00;;;;;;5414214;26;19936;-69
2024/04/24 14:24:45;;;;;;;;;;;8.20;18.40;;;;;;5414725;26;20360;-70
2024/04/24 14:27:11;;;;;;;;;;;8.30;28.90;;;;;;5414988;26;20364;-71
2024/04/24 14:29:36;;;;;;;;;;;8.10;19.30;;;;;;5414995;26;19929;-71